sensor_id;sensor_type;location;lat;lon;timestamp;temperature;humidity
60727;DHT22;46577;49.004;12.120;2023-02-15T00:01:47;0.20;99.90
60727;DHT22;46577;49.004;12.120;2023-02-15T00:04:14;0.40;99.90
60727;DHT22;46577;49.004;12.120;2023-02-15T00:06:40;0.20;99.90
60727;DHT22;46577;49.004;12.120;2023-02-15T00:09:06;0.20;99.90
60727;DHT22;46577;49.004;12.120;2023-02-15T00:11:32;0.20;99.90
60727;DHT22;46577;49.004;12.120;2023-02-15T00:14:23;0.20;99.90
60727;DHT22;46577;49.004;12.120;2023-02-15T00:16:51;0.20;99.90
60727;DHT22;46577;49.004;12.120;2023-02-15T00:19:18;0.20;99.90
60727;DHT22;46577;49.004;12.120;2023-02-15T00:21:45;0.30;99.90
60727;DHT22;46577;49.004;12.120;2023-02-15T00:24:13;0.10;99.90
60727;DHT22;46577;49.004;12.120;2023-02-15T00:26:40;0.10;99.90
60727;DHT22;46577;49.004;12.120;2023-02-15T00:29:06;0.10;99.90
60727;DHT22;46577;49.004;12.120;2023-02-15T00:31:33;0.20;99.90
60727;DHT22;46577;49.004;12.120;2023-02-15T00:34:10;0.30;99.90
60727;DHT22;46577;49.004;12.120;2023-02-15T00:36:36;0.30;99.90
60727;DHT22;46577;49.004;12.120;2023-02-15T00:39:02;0.40;99.90
60727;DHT22;46577;49.004;12.120;2023-02-15T00:41:30;0.50;99.90
60727;DHT22;46577;49.004;12.120;2023-02-15T00:43:56;0.50;99.90
60727;DHT22;46577;49.004;12.120;2023-02-15T00:46:21;0.50;99.90
60727;DHT22;46577;49.004;12.120;2023-02-15T00:48:47;1.70;99.90
60727;DHT22;46577;49.004;12.120;2023-02-15T00:51:13;0.30;99.90
60727;DHT22;46577;49.004;12.120;2023-02-15T00:53:38;0.20;99.90
60727;DHT22;46577;49.004;12.120;2023-02-15T00:56:04;0.20;99.90
60727;DHT22;46577;49.004;12.120;2023-02-15T00:58:30;0.20;99.90
60727;DHT22;46577;49.004;12.120;2023-02-15T01:01:06;0.20;99.90
60727;DHT22;46577;49.004;12.120;2023-02-15T01:03:32;0.30;99.90
60727;DHT22;46577;49.004;12.120;2023-02-15T01:05:57;0.30;99.90
60727;DHT22;46577;49.004;12.120;2023-02-15T01:08:24;0.30;99.90
60727;DHT22;46577;49.004;12.120;2023-02-15T01:10:50;0.30;99.90
60727;DHT22;46577;49.004;12.120;2023-02-15T01:13:16;0.40;99.90
60727;DHT22;46577;49.004;12.120;2023-02-15T01:15:42;0.30;99.90
60727;DHT22;46577;49.004;12.120;2023-02-15T01:18:08;0.40;99.90
60727;DHT22;46577;49.004;12.120;2023-02-15T01:20:36;0.40;99.90
60727;DHT22;46577;49.004;12.120;2023-02-15T01:23:05;0.30;99.90
60727;DHT22;46577;49.004;12.120;2023-02-15T01:25:33;0.40;99.90
60727;DHT22;46577;49.004;12.120;2023-02-15T01:27:59;0.30;99.90
60727;DHT22;46577;49.004;12.120;2023-02-15T01:30:25;0.20;99.90
60727;DHT22;46577;49.004;12.120;2023-02-15T01:32:51;0.20;99.90
60727;DHT22;46577;49.004;12.120;2023-02-15T01:35:17;0.10;99.90
60727;DHT22;46577;49.004;12.120;2023-02-15T01:37:43;0.20;99.90
60727;DHT22;46577;49.004;12.120;2023-02-15T01:40:13;0.20;99.90
60727;DHT22;46577;49.004;12.120;2023-02-15T01:42:40;0.30;99.90
60727;DHT22;46577;49.004;12.120;2023-02-15T01:45:26;2.20;99.90
60727;DHT22;46577;49.004;12.120;2023-02-15T01:48:00;0.10;99.90
60727;DHT22;46577;49.004;12.120;2023-02-15T01:50:37;0.10;99.90
60727;DHT22;46577;49.004;12.120;2023-02-15T01:53:27;0.10;99.90
60727;DHT22;46577;49.004;12.120;2023-02-15T01:56:00;0.10;99.90
60727;DHT22;46577;49.004;12.120;2023-02-15T01:58:28;0.00;99.90
60727;DHT22;46577;49.004;12.120;2023-02-15T02:00:57;0.00;99.90
60727;DHT22;46577;49.004;12.120;2023-02-15T02:06:09;0.00;99.90
60727;DHT22;46577;49.004;12.120;2023-02-15T02:08:35;0.10;99.90
60727;DHT22;46577;49.004;12.120;2023-02-15T02:11:01;0.10;99.90
60727;DHT22;46577;49.004;12.120;2023-02-15T02:13:26;0.00;99.90
60727;DHT22;46577;49.004;12.120;2023-02-15T02:16:00;0.00;99.90
60727;DHT22;46577;49.004;12.120;2023-02-15T02:27:47;0.00;99.90
60727;DHT22;46577;49.004;12.120;2023-02-15T02:39:21;0.20;99.90
60727;DHT22;46577;49.004;12.120;2023-02-15T02:42:06;0.20;99.90
60727;DHT22;46577;49.004;12.120;2023-02-15T02:44:43;0.10;99.90
60727;DHT22;46577;49.004;12.120;2023-02-15T02:47:29;0.00;99.90
60727;DHT22;46577;49.004;12.120;2023-02-15T02:50:05;0.00;99.90
60727;DHT22;46577;49.004;12.120;2023-02-15T02:52:46;0.00;99.90
60727;DHT22;46577;49.004;12.120;2023-02-15T02:55:32;-0.10;99.90
60727;DHT22;46577;49.004;12.120;2023-02-15T02:58:21;-0.10;99.90
60727;DHT22;46577;49.004;12.120;2023-02-15T03:03:30;-0.10;99.90
60727;DHT22;46577;49.004;12.120;2023-02-15T03:05:59;-0.10;99.90
60727;DHT22;46577;49.004;12.120;2023-02-15T03:08:31;-0.20;99.90
60727;DHT22;46577;49.004;12.120;2023-02-15T03:11:00;-0.10;99.90
60727;DHT22;46577;49.004;12.120;2023-02-15T03:13:27;-0.20;99.90
60727;DHT22;46577;49.004;12.120;2023-02-15T03:15:54;-0.30;99.90
60727;DHT22;46577;49.004;12.120;2023-02-15T03:18:46;-0.30;99.90
60727;DHT22;46577;49.004;12.120;2023-02-15T03:21:20;-0.30;99.90
60727;DHT22;46577;49.004;12.120;2023-02-15T03:23:53;-0.20;99.90
60727;DHT22;46577;49.004;12.120;2023-02-15T03:26:21;-0.30;99.90
60727;DHT22;46577;49.004;12.120;2023-02-15T03:28:50;-0.30;99.90
60727;DHT22;46577;49.004;12.120;2023-02-15T03:31:18;-0.10;99.90
60727;DHT22;46577;49.004;12.120;2023-02-15T03:33:57;-0.10;99.90
60727;DHT22;46577;49.004;12.120;2023-02-15T03:36:28;-0.20;99.90
60727;DHT22;46577;49.004;12.120;2023-02-15T03:39:13;-0.20;99.90
60727;DHT22;46577;49.004;12.120;2023-02-15T03:41:55;-0.20;99.90
60727;DHT22;46577;49.004;12.120;2023-02-15T03:44:29;-0.20;99.90
60727;DHT22;46577;49.004;12.120;2023-02-15T03:47:12;-0.30;99.90
60727;DHT22;46577;49.004;12.120;2023-02-15T03:49:51;-0.20;99.90
60727;DHT22;46577;49.004;12.120;2023-02-15T03:52:20;-0.10;99.90
60727;DHT22;46577;49.004;12.120;2023-02-15T03:54:47;-0.10;99.90
60727;DHT22;46577;49.004;12.120;2023-02-15T03:57:20;-0.10;99.90
60727;DHT22;46577;49.004;12.120;2023-02-15T04:00:15;-0.20;99.90
60727;DHT22;46577;49.004;12.120;2023-02-15T04:03:11;-0.20;99.90
60727;DHT22;46577;49.004;12.120;2023-02-15T04:05:38;-0.10;99.90
60727;DHT22;46577;49.004;12.120;2023-02-15T04:08:04;-0.10;99.90
60727;DHT22;46577;49.004;12.120;2023-02-15T04:10:30;-0.10;99.90
60727;DHT22;46577;49.004;12.120;2023-02-15T04:13:14;-0.20;99.90
60727;DHT22;46577;49.004;12.120;2023-02-15T04:15:40;-0.30;99.90
60727;DHT22;46577;49.004;12.120;2023-02-15T04:18:24;-0.30;99.90
60727;DHT22;46577;49.004;12.120;2023-02-15T04:21:08;-0.30;99.90
60727;DHT22;46577;49.004;12.120;2023-02-15T04:23:52;-0.40;99.90
60727;DHT22;46577;49.004;12.120;2023-02-15T04:26:36;-0.30;99.90
60727;DHT22;46577;49.004;12.120;2023-02-15T04:29:01;-0.10;99.90
60727;DHT22;46577;49.004;12.120;2023-02-15T04:31:27;-0.30;99.90
60727;DHT22;46577;49.004;12.120;2023-02-15T04:33:53;-0.30;99.90
60727;DHT22;46577;49.004;12.120;2023-02-15T04:36:18;-0.30;99.90
60727;DHT22;46577;49.004;12.120;2023-02-15T04:38:44;-0.30;99.90
60727;DHT22;46577;49.004;12.120;2023-02-15T04:41:09;-0.30;99.90
60727;DHT22;46577;49.004;12.120;2023-02-15T04:43:36;-0.20;99.90
60727;DHT22;46577;49.004;12.120;2023-02-15T04:46:02;-0.20;99.90
60727;DHT22;46577;49.004;12.120;2023-02-15T04:48:27;-0.10;99.90
60727;DHT22;46577;49.004;12.120;2023-02-15T04:50:53;0.00;99.90
60727;DHT22;46577;49.004;12.120;2023-02-15T04:53:19;0.00;99.90
60727;DHT22;46577;49.004;12.120;2023-02-15T04:55:44;0.10;99.90
60727;DHT22;46577;49.004;12.120;2023-02-15T04:58:10;0.20;99.90
60727;DHT22;46577;49.004;12.120;2023-02-15T05:00:35;0.20;99.90
60727;DHT22;46577;49.004;12.120;2023-02-15T05:03:01;0.30;99.90
60727;DHT22;46577;49.004;12.120;2023-02-15T05:05:27;0.10;99.90
60727;DHT22;46577;49.004;12.120;2023-02-15T05:07:53;-0.10;99.90
60727;DHT22;46577;49.004;12.120;2023-02-15T05:10:18;-0.10;99.90
60727;DHT22;46577;49.004;12.120;2023-02-15T05:12:44;-0.10;99.90
60727;DHT22;46577;49.004;12.120;2023-02-15T05:15:09;-0.10;99.90
60727;DHT22;46577;49.004;12.120;2023-02-15T05:17:35;-0.10;99.90
60727;DHT22;46577;49.004;12.120;2023-02-15T05:20:01;0.00;99.90
60727;DHT22;46577;49.004;12.120;2023-02-15T05:22:27;-0.10;99.90
60727;DHT22;46577;49.004;12.120;2023-02-15T05:24:52;0.00;99.90
60727;DHT22;46577;49.004;12.120;2023-02-15T05:27:36;0.00;99.90
60727;DHT22;46577;49.004;12.120;2023-02-15T05:30:21;0.10;99.90
60727;DHT22;46577;49.004;12.120;2023-02-15T05:32:46;0.10;99.90
60727;DHT22;46577;49.004;12.120;2023-02-15T05:35:14;0.30;99.90
60727;DHT22;46577;49.004;12.120;2023-02-15T05:37:40;0.10;99.90
60727;DHT22;46577;49.004;12.120;2023-02-15T05:40:06;0.20;99.90
60727;DHT22;46577;49.004;12.120;2023-02-15T05:42:32;0.20;99.90
60727;DHT22;46577;49.004;12.120;2023-02-15T05:44:58;0.30;99.90
60727;DHT22;46577;49.004;12.120;2023-02-15T05:47:23;0.20;99.90
60727;DHT22;46577;49.004;12.120;2023-02-15T05:49:49;0.40;99.90
60727;DHT22;46577;49.004;12.120;2023-02-15T05:52:15;0.30;99.90
60727;DHT22;46577;49.004;12.120;2023-02-15T05:54:40;0.10;99.90
60727;DHT22;46577;49.004;12.120;2023-02-15T05:57:06;-0.10;99.90
60727;DHT22;46577;49.004;12.120;2023-02-15T05:59:31;-0.10;99.90
60727;DHT22;46577;49.004;12.120;2023-02-15T06:01:57;0.00;99.90
60727;DHT22;46577;49.004;12.120;2023-02-15T06:04:23;0.10;99.90
60727;DHT22;46577;49.004;12.120;2023-02-15T06:06:48;0.20;99.90
60727;DHT22;46577;49.004;12.120;2023-02-15T06:09:14;0.20;99.90
60727;DHT22;46577;49.004;12.120;2023-02-15T06:11:39;0.20;99.90
60727;DHT22;46577;49.004;12.120;2023-02-15T06:14:05;0.10;99.90
60727;DHT22;46577;49.004;12.120;2023-02-15T06:16:31;0.20;99.90
60727;DHT22;46577;49.004;12.120;2023-02-15T06:18:56;0.20;99.90
60727;DHT22;46577;49.004;12.120;2023-02-15T06:21:22;0.20;99.90
60727;DHT22;46577;49.004;12.120;2023-02-15T06:23:47;0.20;99.90
60727;DHT22;46577;49.004;12.120;2023-02-15T06:26:13;0.20;99.90
60727;DHT22;46577;49.004;12.120;2023-02-15T06:28:39;0.20;99.90
60727;DHT22;46577;49.004;12.120;2023-02-15T06:31:06;0.20;99.90
60727;DHT22;46577;49.004;12.120;2023-02-15T06:33:32;0.20;99.90
60727;DHT22;46577;49.004;12.120;2023-02-15T06:35:59;0.20;99.90
60727;DHT22;46577;49.004;12.120;2023-02-15T06:38:25;0.10;99.90
60727;DHT22;46577;49.004;12.120;2023-02-15T06:40:50;0.00;99.90
60727;DHT22;46577;49.004;12.120;2023-02-15T06:43:16;0.10;99.90
60727;DHT22;46577;49.004;12.120;2023-02-15T06:45:41;0.10;99.90
60727;DHT22;46577;49.004;12.120;2023-02-15T06:48:07;0.10;99.90
60727;DHT22;46577;49.004;12.120;2023-02-15T06:50:34;0.10;99.90
60727;DHT22;46577;49.004;12.120;2023-02-15T06:52:59;0.00;99.90
60727;DHT22;46577;49.004;12.120;2023-02-15T06:55:25;0.00;99.90
60727;DHT22;46577;49.004;12.120;2023-02-15T06:57:51;-0.20;99.90
60727;DHT22;46577;49.004;12.120;2023-02-15T07:00:17;-0.10;99.90
60727;DHT22;46577;49.004;12.120;2023-02-15T07:02:44;0.00;99.90
60727;DHT22;46577;49.004;12.120;2023-02-15T07:05:09;0.00;99.90
60727;DHT22;46577;49.004;12.120;2023-02-15T07:07:35;0.00;99.90
60727;DHT22;46577;49.004;12.120;2023-02-15T07:10:01;0.10;99.90
60727;DHT22;46577;49.004;12.120;2023-02-15T07:12:27;0.00;99.90
60727;DHT22;46577;49.004;12.120;2023-02-15T07:15:12;0.00;99.90
60727;DHT22;46577;49.004;12.120;2023-02-15T07:17:39;0.00;99.90
60727;DHT22;46577;49.004;12.120;2023-02-15T07:20:10;0.00;99.90
60727;DHT22;46577;49.004;12.120;2023-02-15T07:22:36;0.00;99.90
60727;DHT22;46577;49.004;12.120;2023-02-15T07:25:07;0.10;99.90
60727;DHT22;46577;49.004;12.120;2023-02-15T07:27:33;0.10;99.90
60727;DHT22;46577;49.004;12.120;2023-02-15T07:29:59;0.10;99.90
60727;DHT22;46577;49.004;12.120;2023-02-15T07:32:29;0.10;99.90
60727;DHT22;46577;49.004;12.120;2023-02-15T07:34:56;0.00;99.90
60727;DHT22;46577;49.004;12.120;2023-02-15T07:37:21;0.00;99.90
60727;DHT22;46577;49.004;12.120;2023-02-15T07:39:47;0.00;99.90
60727;DHT22;46577;49.004;12.120;2023-02-15T07:42:13;-0.10;99.90
60727;DHT22;46577;49.004;12.120;2023-02-15T07:44:38;0.00;99.90
60727;DHT22;46577;49.004;12.120;2023-02-15T07:47:04;-0.10;99.90
60727;DHT22;46577;49.004;12.120;2023-02-15T07:49:30;-0.10;99.90
60727;DHT22;46577;49.004;12.120;2023-02-15T07:51:55;0.00;99.90
60727;DHT22;46577;49.004;12.120;2023-02-15T07:54:21;0.10;99.90
60727;DHT22;46577;49.004;12.120;2023-02-15T07:56:46;0.00;99.90
60727;DHT22;46577;49.004;12.120;2023-02-15T07:59:12;0.10;99.90
60727;DHT22;46577;49.004;12.120;2023-02-15T08:01:38;0.10;99.90
60727;DHT22;46577;49.004;12.120;2023-02-15T08:04:06;0.00;99.90
60727;DHT22;46577;49.004;12.120;2023-02-15T08:06:34;0.00;99.90
60727;DHT22;46577;49.004;12.120;2023-02-15T08:09:02;0.00;99.90
60727;DHT22;46577;49.004;12.120;2023-02-15T08:11:30;0.00;99.90
60727;DHT22;46577;49.004;12.120;2023-02-15T08:14:06;0.20;99.90
60727;DHT22;46577;49.004;12.120;2023-02-15T08:17:16;0.30;99.90
60727;DHT22;46577;49.004;12.120;2023-02-15T08:19:29;0.20;99.90
60727;DHT22;46577;49.004;12.120;2023-02-15T08:21:57;0.10;99.90
60727;DHT22;46577;49.004;12.120;2023-02-15T08:24:25;0.00;99.90
60727;DHT22;46577;49.004;12.120;2023-02-15T08:26:51;0.00;99.90
60727;DHT22;46577;49.004;12.120;2023-02-15T08:29:19;0.10;99.90
60727;DHT22;46577;49.004;12.120;2023-02-15T08:31:46;0.10;99.90
60727;DHT22;46577;49.004;12.120;2023-02-15T08:34:15;0.10;99.90
60727;DHT22;46577;49.004;12.120;2023-02-15T08:36:43;0.10;99.90
60727;DHT22;46577;49.004;12.120;2023-02-15T08:39:11;0.10;99.90
60727;DHT22;46577;49.004;12.120;2023-02-15T08:41:38;0.10;99.90
60727;DHT22;46577;49.004;12.120;2023-02-15T08:44:06;-0.10;99.90
60727;DHT22;46577;49.004;12.120;2023-02-15T08:46:39;-0.10;99.90
60727;DHT22;46577;49.004;12.120;2023-02-15T08:49:05;-0.10;99.90
60727;DHT22;46577;49.004;12.120;2023-02-15T08:51:33;0.00;99.90
60727;DHT22;46577;49.004;12.120;2023-02-15T08:54:01;0.20;99.90
60727;DHT22;46577;49.004;12.120;2023-02-15T08:56:30;0.20;99.90
60727;DHT22;46577;49.004;12.120;2023-02-15T08:58:57;0.20;99.90
60727;DHT22;46577;49.004;12.120;2023-02-15T09:01:27;0.10;99.90
60727;DHT22;46577;49.004;12.120;2023-02-15T09:03:59;0.00;99.90
60727;DHT22;46577;49.004;12.120;2023-02-15T09:06:25;0.00;99.90
60727;DHT22;46577;49.004;12.120;2023-02-15T09:08:52;-0.10;99.90
60727;DHT22;46577;49.004;12.120;2023-02-15T09:11:21;-0.10;99.90
60727;DHT22;46577;49.004;12.120;2023-02-15T09:13:53;-0.30;99.90
60727;DHT22;46577;49.004;12.120;2023-02-15T09:16:20;-0.30;99.90
60727;DHT22;46577;49.004;12.120;2023-02-15T09:18:47;-0.10;99.90
60727;DHT22;46577;49.004;12.120;2023-02-15T09:21:15;0.00;99.90
60727;DHT22;46577;49.004;12.120;2023-02-15T09:23:42;0.10;99.90
60727;DHT22;46577;49.004;12.120;2023-02-15T09:26:10;0.00;99.90
60727;DHT22;46577;49.004;12.120;2023-02-15T09:28:36;0.10;99.90
60727;DHT22;46577;49.004;12.120;2023-02-15T09:31:10;0.10;99.90
60727;DHT22;46577;49.004;12.120;2023-02-15T09:33:37;0.20;99.90
60727;DHT22;46577;49.004;12.120;2023-02-15T09:36:17;0.40;99.90
60727;DHT22;46577;49.004;12.120;2023-02-15T09:38:44;0.40;99.90
60727;DHT22;46577;49.004;12.120;2023-02-15T09:59:08;0.60;99.90
60727;DHT22;46577;49.004;12.120;2023-02-15T10:04:24;0.70;99.90
60727;DHT22;46577;49.004;12.120;2023-02-15T10:12:16;0.80;99.90
60727;DHT22;46577;49.004;12.120;2023-02-15T10:28:18;0.90;99.90
60727;DHT22;46577;49.004;12.120;2023-02-15T10:30:50;0.90;99.90
60727;DHT22;46577;49.004;12.120;2023-02-15T10:33:39;0.90;99.90
60727;DHT22;46577;49.004;12.120;2023-02-15T10:41:41;0.90;99.90
60727;DHT22;46577;49.004;12.120;2023-02-15T10:44:18;1.00;99.90
60727;DHT22;46577;49.004;12.120;2023-02-15T10:55:19;1.10;99.90
60727;DHT22;46577;49.004;12.120;2023-02-15T11:00:44;1.10;99.90
60727;DHT22;46577;49.004;12.120;2023-02-15T11:06:17;1.20;99.90
60727;DHT22;46577;49.004;12.120;2023-02-15T11:08:46;1.30;99.90
60727;DHT22;46577;49.004;12.120;2023-02-15T11:13:51;1.30;99.90
60727;DHT22;46577;49.004;12.120;2023-02-15T11:16:24;1.30;99.90
60727;DHT22;46577;49.004;12.120;2023-02-15T11:19:19;1.50;99.90
60727;DHT22;46577;49.004;12.120;2023-02-15T11:21:57;1.40;99.90
60727;DHT22;46577;49.004;12.120;2023-02-15T11:24:26;1.40;99.90
60727;DHT22;46577;49.004;12.120;2023-02-15T11:30:02;1.60;99.90
60727;DHT22;46577;49.004;12.120;2023-02-15T11:32:34;1.70;99.90
60727;DHT22;46577;49.004;12.120;2023-02-15T11:40:02;1.50;99.90
60727;DHT22;46577;49.004;12.120;2023-02-15T11:42:37;1.60;99.90
60727;DHT22;46577;49.004;12.120;2023-02-15T11:47:44;1.50;99.90
60727;DHT22;46577;49.004;12.120;2023-02-15T11:50:16;1.40;99.90
60727;DHT22;46577;49.004;12.120;2023-02-15T11:52:43;1.50;99.90
60727;DHT22;46577;49.004;12.120;2023-02-15T11:55:14;1.30;99.90
60727;DHT22;46577;49.004;12.120;2023-02-15T11:57:45;1.30;99.90
60727;DHT22;46577;49.004;12.120;2023-02-15T12:00:36;1.30;99.90
60727;DHT22;46577;49.004;12.120;2023-02-15T12:03:17;1.40;99.90
60727;DHT22;46577;49.004;12.120;2023-02-15T12:05:46;1.40;99.90
60727;DHT22;46577;49.004;12.120;2023-02-15T12:08:20;1.50;99.90
60727;DHT22;46577;49.004;12.120;2023-02-15T12:11:09;1.40;99.90
60727;DHT22;46577;49.004;12.120;2023-02-15T12:13:58;1.50;99.90
60727;DHT22;46577;49.004;12.120;2023-02-15T12:16:25;1.40;99.90
60727;DHT22;46577;49.004;12.120;2023-02-15T12:18:54;1.60;99.90
60727;DHT22;46577;49.004;12.120;2023-02-15T12:21:33;1.70;99.90
60727;DHT22;46577;49.004;12.120;2023-02-15T12:24:20;1.90;99.90
60727;DHT22;46577;49.004;12.120;2023-02-15T12:26:56;1.90;99.90
60727;DHT22;46577;49.004;12.120;2023-02-15T12:29:27;1.80;99.90
60727;DHT22;46577;49.004;12.120;2023-02-15T12:31:54;1.80;99.90
60727;DHT22;46577;49.004;12.120;2023-02-15T12:34:41;1.80;99.90
60727;DHT22;46577;49.004;12.120;2023-02-15T12:37:22;1.90;99.90
60727;DHT22;46577;49.004;12.120;2023-02-15T12:39:55;1.60;99.90
60727;DHT22;46577;49.004;12.120;2023-02-15T12:42:21;1.70;99.90
60727;DHT22;46577;49.004;12.120;2023-02-15T12:45:03;1.80;99.90
60727;DHT22;46577;49.004;12.120;2023-02-15T12:47:30;1.70;99.90
60727;DHT22;46577;49.004;12.120;2023-02-15T12:50:22;1.70;99.90
60727;DHT22;46577;49.004;12.120;2023-02-15T12:52:50;1.50;99.90
60727;DHT22;46577;49.004;12.120;2023-02-15T12:55:27;1.30;99.90
60727;DHT22;46577;49.004;12.120;2023-02-15T13:00:39;1.30;99.90
60727;DHT22;46577;49.004;12.120;2023-02-15T13:03:14;1.30;99.90
60727;DHT22;46577;49.004;12.120;2023-02-15T13:05:44;1.50;99.90
60727;DHT22;46577;49.004;12.120;2023-02-15T13:08:13;1.30;99.90
60727;DHT22;46577;49.004;12.120;2023-02-15T13:13:27;1.50;99.90
60727;DHT22;46577;49.004;12.120;2023-02-15T13:16:02;1.30;99.90
60727;DHT22;46577;49.004;12.120;2023-02-15T13:18:46;1.10;99.90
60727;DHT22;46577;49.004;12.120;2023-02-15T13:21:30;1.10;99.90
60727;DHT22;46577;49.004;12.120;2023-02-15T13:24:05;1.20;99.90
60727;DHT22;46577;49.004;12.120;2023-02-15T13:26:32;1.20;99.90
60727;DHT22;46577;49.004;12.120;2023-02-15T13:29:11;1.20;99.90
60727;DHT22;46577;49.004;12.120;2023-02-15T13:31:38;1.20;99.90
60727;DHT22;46577;49.004;12.120;2023-02-15T13:34:18;1.10;99.90
60727;DHT22;46577;49.004;12.120;2023-02-15T13:36:54;1.30;99.90
60727;DHT22;46577;49.004;12.120;2023-02-15T13:40:13;1.50;99.90
60727;DHT22;46577;49.004;12.120;2023-02-15T13:42:40;1.60;99.90
60727;DHT22;46577;49.004;12.120;2023-02-15T13:51:21;1.70;99.90
60727;DHT22;46577;49.004;12.120;2023-02-15T13:56:58;1.80;99.90
60727;DHT22;46577;49.004;12.120;2023-02-15T13:59:58;1.60;99.90
60727;DHT22;46577;49.004;12.120;2023-02-15T14:16:24;1.50;99.90
60727;DHT22;46577;49.004;12.120;2023-02-15T14:18:25;1.60;99.90
60727;DHT22;46577;49.004;12.120;2023-02-15T14:21:15;1.50;99.90
60727;DHT22;46577;49.004;12.120;2023-02-15T14:32:03;1.20;99.90
